createdAt,value
2022-08-04T00:01:34.086Z,16.30
2022-08-04T00:04:08.823Z,16.20
2022-08-04T00:06:52.743Z,16.20
2022-08-04T00:09:58.590Z,16.20
2022-08-04T00:12:31.087Z,16.20
2022-08-04T00:15:00.809Z,16.20
2022-08-04T00:18:01.125Z,16.10
2022-08-04T00:20:32.546Z,16.10
2022-08-04T00:23:02.113Z,16.10
2022-08-04T00:25:30.213Z,16.10
2022-08-04T00:28:00.238Z,16.10
2022-08-04T00:30:28.209Z,16.00
2022-08-04T00:32:57.877Z,16.00
2022-08-04T00:35:25.505Z,16.00
2022-08-04T00:37:54.076Z,16.10
2022-08-04T00:40:36.500Z,16.00
2022-08-04T00:43:21.965Z,16.20
2022-08-04T00:46:17.558Z,16.20
2022-08-04T00:49:03.404Z,16.30
2022-08-04T00:51:42.699Z,16.20
2022-08-04T00:54:32.768Z,16.20
2022-08-04T00:57:33.579Z,16.20
2022-08-04T01:00:15.581Z,16.30
2022-08-04T01:02:51.818Z,16.60
2022-08-04T01:05:58.000Z,16.60
2022-08-04T01:08:55.823Z,16.40
2022-08-04T01:11:56.996Z,16.30
2022-08-04T01:14:46.311Z,16.10
2022-08-04T01:17:22.477Z,16.00
2022-08-04T01:20:07.745Z,15.80
2022-08-04T01:22:35.197Z,15.80
2022-08-04T01:25:17.524Z,15.90
2022-08-04T01:28:15.085Z,15.80
2022-08-04T01:30:48.994Z,15.90
2022-08-04T01:33:18.418Z,15.90
2022-08-04T01:35:54.742Z,16.10
2022-08-04T01:38:39.982Z,16.50
2022-08-04T01:41:09.910Z,16.60
2022-08-04T01:43:42.780Z,16.60
2022-08-04T01:46:16.124Z,16.60
2022-08-04T01:48:48.347Z,16.60
2022-08-04T01:51:15.740Z,16.50
2022-08-04T01:53:44.994Z,16.50
2022-08-04T01:56:13.300Z,16.60
2022-08-04T01:58:42.104Z,16.60
2022-08-04T02:01:12.692Z,16.50
2022-08-04T02:04:19.669Z,16.50
2022-08-04T02:06:52.296Z,16.40
2022-08-04T02:09:54.610Z,16.30
2022-08-04T02:12:27.758Z,16.10
2022-08-04T02:15:08.220Z,16.20
2022-08-04T02:17:56.113Z,16.20
2022-08-04T02:20:24.736Z,16.20
2022-08-04T02:23:16.768Z,16.10
2022-08-04T02:25:49.275Z,16.00
2022-08-04T02:28:23.167Z,15.90
2022-08-04T02:31:08.960Z,15.90
2022-08-04T02:33:39.056Z,15.70
2022-08-04T02:36:09.695Z,15.60
2022-08-04T02:38:42.888Z,15.60
2022-08-04T02:41:11.815Z,15.50
2022-08-04T02:43:51.041Z,15.50
2022-08-04T02:46:22.014Z,15.50
2022-08-04T02:48:51.304Z,15.40
2022-08-04T02:51:27.881Z,15.40
2022-08-04T02:53:57.993Z,15.40
2022-08-04T02:56:28.228Z,15.40
2022-08-04T02:59:07.520Z,15.30
2022-08-04T03:01:35.982Z,15.30
2022-08-04T03:04:09.716Z,15.30
2022-08-04T03:06:51.838Z,15.30
2022-08-04T03:09:56.580Z,15.30
2022-08-04T03:13:03.790Z,15.40
2022-08-04T03:15:57.991Z,15.50
2022-08-04T03:18:47.279Z,15.40
2022-08-04T03:21:42.359Z,15.50
2022-08-04T03:24:26.334Z,15.50
2022-08-04T03:27:11.771Z,15.60
2022-08-04T03:30:03.401Z,15.60
2022-08-04T03:33:07.557Z,15.60
2022-08-04T03:36:03.362Z,15.70
2022-08-04T03:39:03.568Z,15.80
2022-08-04T03:42:03.461Z,15.80
2022-08-04T03:44:53.756Z,15.80
2022-08-04T03:47:48.165Z,15.90
2022-08-04T03:50:42.387Z,15.90
2022-08-04T03:53:34.267Z,16.00
2022-08-04T03:56:21.142Z,16.00
2022-08-04T03:59:00.459Z,16.10
2022-08-04T04:02:02.431Z,16.20
2022-08-04T04:05:10.880Z,16.20
2022-08-04T04:07:55.869Z,16.20
2022-08-04T04:10:46.891Z,16.20
2022-08-04T04:13:28.079Z,16.30
2022-08-04T04:16:29.354Z,16.30
2022-08-04T04:19:02.476Z,16.40
2022-08-04T04:21:59.146Z,16.50
2022-08-04T04:24:49.968Z,16.60
2022-08-04T04:27:54.694Z,16.70
2022-08-04T04:30:41.381Z,16.80
2022-08-04T04:33:34.283Z,16.90
2022-08-04T04:36:40.579Z,17.10
2022-08-04T04:39:32.811Z,17.10
2022-08-04T04:42:23.053Z,17.20
2022-08-04T04:44:53.546Z,17.30
2022-08-04T04:48:08.069Z,17.40
2022-08-04T04:50:21.886Z,17.50
2022-08-04T04:53:17.531Z,17.60
2022-08-04T04:55:51.680Z,17.70
2022-08-04T04:58:22.435Z,17.80
2022-08-04T05:01:14.385Z,18.00
2022-08-04T05:04:09.373Z,18.10
2022-08-04T05:06:54.380Z,18.20
2022-08-04T05:09:40.170Z,18.30
2022-08-04T05:14:31.694Z,18.50
2022-08-04T05:15:00.391Z,18.60
2022-08-04T05:17:57.375Z,18.80
2022-08-04T05:20:48.071Z,18.90
2022-08-04T05:23:23.578Z,19.00
2022-08-04T05:26:02.960Z,19.10
2022-08-04T05:28:44.000Z,19.10
2022-08-04T05:31:29.019Z,19.10
2022-08-04T05:34:09.653Z,19.30
2022-08-04T05:36:46.894Z,19.30
2022-08-04T05:39:23.008Z,19.30
2022-08-04T05:41:55.532Z,19.40
2022-08-04T05:44:27.887Z,19.50
2022-08-04T05:46:59.286Z,19.60
2022-08-04T05:49:30.163Z,19.60
2022-08-04T05:52:03.196Z,19.70
2022-08-04T05:54:35.873Z,19.70
2022-08-04T05:57:07.367Z,19.80
2022-08-04T05:59:38.619Z,20.00
2022-08-04T06:02:08.414Z,20.10
2022-08-04T06:04:39.985Z,20.10
2022-08-04T06:07:09.266Z,20.10
2022-08-04T06:09:36.661Z,20.10
2022-08-04T06:12:15.066Z,20.20
2022-08-04T06:14:48.119Z,20.50
2022-08-04T06:19:56.614Z,20.70
2022-08-04T06:20:34.529Z,20.80
2022-08-04T06:23:06.447Z,21.00
2022-08-04T06:25:38.866Z,21.00
2022-08-04T06:28:10.244Z,21.30
2022-08-04T06:30:39.506Z,21.30
2022-08-04T06:33:54.133Z,21.40
2022-08-04T06:36:21.207Z,21.60
2022-08-04T06:38:52.072Z,21.70
2022-08-04T06:41:27.103Z,21.80
2022-08-04T06:43:55.375Z,21.90
2022-08-04T06:46:23.316Z,22.00
2022-08-04T06:48:51.852Z,22.10
2022-08-04T06:51:26.163Z,22.20
2022-08-04T06:54:01.046Z,22.20
2022-08-04T06:56:31.311Z,22.40
2022-08-04T06:59:00.424Z,22.10
2022-08-04T07:01:29.566Z,22.10
2022-08-04T07:03:57.235Z,22.00
2022-08-04T07:06:25.876Z,21.80
2022-08-04T07:08:54.657Z,22.00
2022-08-04T07:11:22.541Z,22.00
2022-08-04T07:13:50.483Z,22.10
2022-08-04T07:16:19.951Z,22.20
2022-08-04T07:18:47.459Z,22.30
2022-08-04T07:21:23.405Z,22.50
2022-08-04T07:23:54.543Z,22.70
2022-08-04T07:26:28.769Z,22.90
2022-08-04T07:28:57.188Z,22.90
2022-08-04T07:31:35.156Z,23.00
2022-08-04T07:34:21.034Z,23.10
2022-08-04T07:36:52.913Z,23.30
2022-08-04T07:39:28.564Z,23.40
2022-08-04T07:41:58.942Z,23.60
2022-08-04T07:44:27.440Z,23.70
2022-08-04T07:46:55.418Z,23.80
2022-08-04T07:49:52.143Z,23.90
2022-08-04T07:52:10.855Z,24.20
2022-08-04T07:54:40.122Z,24.20
2022-08-04T07:57:07.964Z,24.20
2022-08-04T07:59:50.707Z,24.00
2022-08-04T08:02:21.340Z,24.10
2022-08-04T08:04:49.454Z,24.00
2022-08-04T08:07:19.168Z,24.30
2022-08-04T08:09:46.558Z,24.80
2022-08-04T08:12:37.804Z,25.20
2022-08-04T08:15:02.109Z,25.00
2022-08-04T08:17:29.451Z,25.20
2022-08-04T08:19:56.868Z,25.20
2022-08-04T08:22:24.311Z,25.00
2022-08-04T08:24:51.964Z,25.20
2022-08-04T08:27:19.699Z,25.50
2022-08-04T08:29:48.260Z,25.50
2022-08-04T08:32:16.294Z,25.40
2022-08-04T08:34:45.832Z,25.20
2022-08-04T08:37:26.799Z,25.20
2022-08-04T08:40:02.670Z,25.10
2022-08-04T08:42:56.373Z,24.80
2022-08-04T08:45:43.748Z,24.70
2022-08-04T08:48:48.305Z,24.80
2022-08-04T08:51:42.643Z,25.20
2022-08-04T08:54:23.484Z,25.40
2022-08-04T08:57:32.627Z,25.40
2022-08-04T09:00:18.397Z,25.80
2022-08-04T09:03:04.699Z,26.10
2022-08-04T09:06:17.072Z,26.10
2022-08-04T09:08:56.936Z,26.30
2022-08-04T09:11:28.216Z,27.10
2022-08-04T09:14:11.613Z,26.80
2022-08-04T09:16:50.777Z,26.60
2022-08-04T09:19:37.874Z,26.30
2022-08-04T09:22:28.815Z,25.90
2022-08-04T09:25:13.940Z,25.90
2022-08-04T09:27:47.415Z,26.30
2022-08-04T09:30:20.971Z,26.50
2022-08-04T09:33:07.316Z,26.30
2022-08-04T09:36:09.826Z,26.20
2022-08-04T09:38:52.370Z,26.10
2022-08-04T09:41:49.407Z,26.30
2022-08-04T09:44:50.053Z,26.40
2022-08-04T09:47:39.797Z,26.20
2022-08-04T09:50:37.857Z,26.50
2022-08-04T09:53:15.621Z,26.20
2022-08-04T09:55:53.556Z,26.00
2022-08-04T09:58:28.068Z,25.90
2022-08-04T10:01:09.424Z,25.70
2022-08-04T10:03:41.590Z,25.60
2022-08-04T10:06:27.542Z,25.80
2022-08-04T10:09:20.162Z,25.70
2022-08-04T10:11:56.885Z,25.80
2022-08-04T10:14:56.629Z,26.00
2022-08-04T10:17:56.925Z,26.00
2022-08-04T10:20:36.566Z,26.00
2022-08-04T10:23:55.305Z,26.20
2022-08-04T10:26:50.588Z,26.80
2022-08-04T10:29:24.897Z,27.20
2022-08-04T10:31:57.627Z,27.00
2022-08-04T10:34:30.424Z,27.10
2022-08-04T10:37:11.294Z,27.10
2022-08-04T10:39:44.539Z,26.80
2022-08-04T10:42:27.658Z,26.90
2022-08-04T10:45:13.933Z,27.10
2022-08-04T10:48:10.883Z,27.30
2022-08-04T10:50:43.135Z,27.70
2022-08-04T10:53:14.734Z,27.90
2022-08-04T10:56:07.379Z,28.40
2022-08-04T10:58:49.116Z,28.70
2022-08-04T11:01:59.969Z,28.20
2022-08-04T11:04:28.079Z,28.10
2022-08-04T11:06:58.552Z,28.80
2022-08-04T11:09:27.333Z,28.70
2022-08-04T11:12:03.254Z,29.10
2022-08-04T11:15:07.500Z,29.20
2022-08-04T11:18:17.212Z,29.60
2022-08-04T11:21:13.772Z,29.70
2022-08-04T11:23:48.473Z,29.00
2022-08-04T11:26:44.804Z,29.70
2022-08-04T11:29:57.541Z,30.20
2022-08-04T11:32:38.385Z,30.10
2022-08-04T11:35:09.917Z,29.10
2022-08-04T11:37:50.348Z,29.20
2022-08-04T11:40:28.377Z,29.20
2022-08-04T11:43:05.092Z,29.30
2022-08-04T11:45:38.387Z,29.60
2022-08-04T11:48:23.278Z,29.80
2022-08-04T11:50:56.770Z,28.70
2022-08-04T11:53:26.374Z,29.30
2022-08-04T11:56:08.395Z,29.70
2022-08-04T11:58:38.461Z,30.40
2022-08-04T12:01:33.527Z,30.90
2022-08-04T12:04:19.478Z,31.70
2022-08-04T12:07:33.662Z,31.40
2022-08-04T12:10:41.017Z,31.20
2022-08-04T12:13:28.328Z,31.10
2022-08-04T12:16:15.341Z,31.80
2022-08-04T12:18:57.788Z,32.30
2022-08-04T12:21:32.065Z,33.10
2022-08-04T12:24:08.603Z,32.70
2022-08-04T12:26:40.396Z,33.20
2022-08-04T12:29:10.653Z,33.90
2022-08-04T12:32:02.514Z,34.00
2022-08-04T12:35:06.329Z,33.00
2022-08-04T12:38:03.148Z,33.10
2022-08-04T12:40:58.088Z,34.20
2022-08-04T12:43:47.620Z,33.60
2022-08-04T12:46:26.193Z,33.70
2022-08-04T12:48:59.401Z,33.60
2022-08-04T12:51:31.034Z,34.00
2022-08-04T12:54:28.832Z,34.90
2022-08-04T12:57:00.038Z,34.90
2022-08-04T12:59:27.402Z,35.10
2022-08-04T13:02:09.477Z,34.70
2022-08-04T13:04:42.966Z,33.80
2022-08-04T13:07:25.617Z,33.60
2022-08-04T13:09:53.729Z,33.50
2022-08-04T13:12:32.222Z,33.40
2022-08-04T13:15:18.232Z,34.00
2022-08-04T13:18:02.385Z,34.40
2022-08-04T13:20:36.123Z,35.30
2022-08-04T13:23:21.427Z,34.80
2022-08-04T13:26:43.616Z,35.20
2022-08-04T13:28:44.368Z,35.00
2022-08-04T13:31:23.547Z,34.90
2022-08-04T13:33:53.857Z,34.80
2022-08-04T13:36:26.174Z,35.30
2022-08-04T13:38:58.493Z,36.50
2022-08-04T13:41:31.083Z,36.00
2022-08-04T13:44:19.678Z,35.20
2022-08-04T13:46:52.333Z,35.10
2022-08-04T13:49:38.117Z,33.90
2022-08-04T13:52:11.292Z,34.80
2022-08-04T13:54:45.088Z,35.80
2022-08-04T13:57:19.853Z,36.20
2022-08-04T13:59:53.741Z,36.10
2022-08-04T14:02:39.768Z,36.30
2022-08-04T14:05:26.805Z,36.70
2022-08-04T14:08:08.831Z,37.30
2022-08-04T14:10:37.430Z,35.00
2022-08-04T14:13:06.626Z,35.10
2022-08-04T14:16:01.133Z,35.50
2022-08-04T14:18:32.893Z,35.50
2022-08-04T14:21:05.272Z,35.40
2022-08-04T14:23:56.658Z,35.40
2022-08-04T14:26:32.589Z,37.00
2022-08-04T14:29:27.845Z,37.20
2022-08-04T14:32:05.991Z,37.80
2022-08-04T14:34:50.411Z,36.60
2022-08-04T14:37:23.207Z,36.30
2022-08-04T14:40:17.719Z,36.40
2022-08-04T14:42:54.431Z,36.80
2022-08-04T14:45:54.047Z,35.60
2022-08-04T14:48:23.305Z,35.90
2022-08-04T14:50:51.480Z,36.30
2022-08-04T14:53:21.045Z,36.10
2022-08-04T14:55:56.482Z,35.90
2022-08-04T14:58:35.425Z,35.40
2022-08-04T15:01:11.876Z,36.20
2022-08-04T15:03:49.895Z,35.70
2022-08-04T15:06:26.545Z,35.90
2022-08-04T15:08:56.110Z,36.50
2022-08-04T15:11:24.716Z,37.20
2022-08-04T15:13:53.899Z,37.10
2022-08-04T15:16:22.807Z,37.90
2022-08-04T15:18:52.637Z,37.70
2022-08-04T15:21:22.752Z,37.40
2022-08-04T15:23:51.444Z,38.10
2022-08-04T15:26:33.508Z,38.00
2022-08-04T15:29:11.032Z,38.20
2022-08-04T15:32:04.008Z,37.30
2022-08-04T15:34:47.707Z,37.20
2022-08-04T15:37:36.816Z,36.90
2022-08-04T15:40:37.286Z,36.90
2022-08-04T15:43:19.970Z,36.80
2022-08-04T15:46:32.910Z,36.70
2022-08-04T15:48:40.106Z,36.40
2022-08-04T15:51:14.581Z,36.20
2022-08-04T15:54:03.085Z,36.60
2022-08-04T15:56:30.181Z,37.10
2022-08-04T15:58:58.175Z,36.80
2022-08-04T16:01:28.003Z,36.50
2022-08-04T16:03:59.912Z,37.10
2022-08-04T16:06:30.104Z,38.00
2022-08-04T16:09:01.826Z,37.90
2022-08-04T16:11:40.905Z,37.90
2022-08-04T16:14:09.568Z,37.40
2022-08-04T16:16:45.293Z,36.80
2022-08-04T16:19:35.526Z,36.40
2022-08-04T16:22:04.823Z,36.60
2022-08-04T16:24:42.770Z,36.30
2022-08-04T16:27:12.091Z,36.90
2022-08-04T16:29:49.229Z,36.50
2022-08-04T16:32:21.770Z,36.10
2022-08-04T16:35:00.174Z,36.20
2022-08-04T16:37:39.320Z,35.90
2022-08-04T16:40:34.601Z,36.00
2022-08-04T16:43:17.432Z,35.80
2022-08-04T16:45:49.242Z,35.70
2022-08-04T16:48:21.533Z,35.80
2022-08-04T16:50:50.766Z,35.60
2022-08-04T16:53:52.539Z,35.30
2022-08-04T16:56:09.233Z,35.10
2022-08-04T16:58:37.143Z,34.10
2022-08-04T17:01:32.109Z,33.90
2022-08-04T17:04:05.561Z,33.10
2022-08-04T17:06:41.784Z,32.30
2022-08-04T17:09:15.297Z,31.10
2022-08-04T17:11:44.173Z,30.30
2022-08-04T17:14:12.096Z,29.80
2022-08-04T17:16:43.786Z,29.30
2022-08-04T17:19:24.481Z,28.70
2022-08-04T17:22:04.408Z,28.40
2022-08-04T17:24:35.440Z,28.00
2022-08-04T17:27:04.193Z,27.70
2022-08-04T17:29:44.490Z,27.50
2022-08-04T17:32:22.374Z,27.30
2022-08-04T17:34:59.471Z,27.00
2022-08-04T17:37:40.137Z,26.80
2022-08-04T17:40:18.329Z,26.50
2022-08-04T17:44:03.906Z,26.40
2022-08-04T17:46:28.984Z,26.20
2022-08-04T17:49:12.547Z,26.00
2022-08-04T17:55:02.858Z,25.70
2022-08-04T17:57:30.818Z,25.50
2022-08-04T18:00:00.387Z,25.40
2022-08-04T18:02:32.736Z,25.30
2022-08-04T18:05:07.698Z,25.20
2022-08-04T18:08:35.220Z,25.00
2022-08-04T18:10:52.596Z,24.90
2022-08-04T18:13:25.223Z,24.80
2022-08-04T18:16:02.647Z,24.70
2022-08-04T18:18:30.667Z,24.60
2022-08-04T18:20:59.556Z,24.60
2022-08-04T18:23:31.747Z,24.50
2022-08-04T18:26:02.411Z,24.40
2022-08-04T18:28:33.300Z,24.20
2022-08-04T18:31:02.466Z,24.10
2022-08-04T18:33:40.575Z,24.00
2022-08-04T18:36:32.976Z,23.90
2022-08-04T18:39:12.993Z,23.80
2022-08-04T18:42:02.407Z,23.80
2022-08-04T18:44:51.891Z,23.70
2022-08-04T18:47:29.980Z,23.60
2022-08-04T18:51:01.063Z,23.50
2022-08-04T18:52:46.076Z,23.50
2022-08-04T18:55:55.733Z,23.30
2022-08-04T18:58:07.132Z,23.20
2022-08-04T19:00:45.704Z,23.20
2022-08-04T19:03:16.403Z,23.10
2022-08-04T19:05:51.691Z,23.00
2022-08-04T19:08:33.184Z,23.00
2022-08-04T19:11:38.618Z,22.90
2022-08-04T19:13:58.275Z,22.90
2022-08-04T19:16:30.489Z,22.80
2022-08-04T19:19:00.666Z,22.70
2022-08-04T19:21:59.457Z,22.60
2022-08-04T19:24:32.330Z,22.60
2022-08-04T19:27:08.416Z,22.50
2022-08-04T19:29:42.906Z,22.40
2022-08-04T19:32:13.933Z,22.40
2022-08-04T19:34:46.187Z,22.40
2022-08-04T19:37:56.297Z,22.30
2022-08-04T19:40:06.452Z,22.30
2022-08-04T19:42:34.854Z,22.20
2022-08-04T19:45:02.937Z,22.10
2022-08-04T19:48:17.555Z,22.10
2022-08-04T19:50:17.984Z,22.10
2022-08-04T19:52:51.550Z,22.10
2022-08-04T19:55:37.082Z,21.90
2022-08-04T19:58:07.365Z,21.90
2022-08-04T20:00:38.099Z,21.80
2022-08-04T20:03:11.929Z,21.70
2022-08-04T20:05:55.248Z,21.80
2022-08-04T20:08:24.356Z,21.70
2022-08-04T20:10:52.692Z,21.70
2022-08-04T20:13:22.913Z,21.60
2022-08-04T20:15:57.309Z,21.50
2022-08-04T20:18:36.804Z,21.50
2022-08-04T20:21:19.591Z,21.50
2022-08-04T20:23:52.791Z,21.40
2022-08-04T20:26:20.691Z,21.40
2022-08-04T20:28:51.884Z,21.30
2022-08-04T20:31:19.841Z,21.20
2022-08-04T20:33:49.141Z,21.20
2022-08-04T20:36:21.136Z,21.20
2022-08-04T20:38:52.615Z,21.10
2022-08-04T20:41:21.248Z,21.10
2022-08-04T20:43:49.974Z,21.00
2022-08-04T20:46:29.193Z,21.00
2022-08-04T20:48:58.042Z,21.00
2022-08-04T20:51:32.121Z,20.90
2022-08-04T20:54:02.297Z,20.80
2022-08-04T20:56:31.439Z,20.80
2022-08-04T20:59:00.437Z,20.70
2022-08-04T21:01:29.918Z,20.70
2022-08-04T21:04:27.752Z,20.60
2022-08-04T21:06:57.781Z,20.60
2022-08-04T21:09:38.519Z,20.60
2022-08-04T21:12:26.550Z,20.50
2022-08-04T21:15:13.459Z,20.50
2022-08-04T21:17:58.649Z,20.40
2022-08-04T21:20:31.548Z,20.30
2022-08-04T21:23:02.275Z,20.30
2022-08-04T21:25:31.196Z,20.20
2022-08-04T21:28:04.402Z,20.20
2022-08-04T21:30:36.931Z,20.20
2022-08-04T21:33:19.596Z,20.20
2022-08-04T21:35:47.412Z,20.10
2022-08-04T21:38:17.562Z,20.00
2022-08-04T21:40:56.021Z,20.00
2022-08-04T21:46:13.113Z,19.90
2022-08-04T21:48:42.975Z,19.90
2022-08-04T21:51:57.304Z,19.90
2022-08-04T21:54:07.571Z,19.90
2022-08-04T21:56:36.287Z,19.80
2022-08-04T21:59:11.096Z,19.90
2022-08-04T22:01:50.127Z,19.80
2022-08-04T22:04:20.108Z,19.80
2022-08-04T22:06:52.026Z,19.70
2022-08-04T22:09:21.905Z,19.60
2022-08-04T22:11:51.054Z,19.60
2022-08-04T22:14:27.264Z,19.50
2022-08-04T22:16:56.795Z,19.50
2022-08-04T22:19:39.804Z,19.40
2022-08-04T22:22:13.649Z,19.40
2022-08-04T22:24:55.011Z,19.40
2022-08-04T22:27:40.675Z,19.40
2022-08-04T22:30:17.677Z,19.30
2022-08-04T22:32:47.014Z,19.20
2022-08-04T22:35:33.225Z,19.10
2022-08-04T22:38:06.073Z,19.10
2022-08-04T22:40:38.652Z,19.10
2022-08-04T22:43:32.727Z,19.00
2022-08-04T22:45:53.265Z,19.00
2022-08-04T22:48:20.894Z,19.00
2022-08-04T22:50:50.801Z,19.00
2022-08-04T22:53:19.120Z,19.00
2022-08-04T22:56:07.119Z,19.00
2022-08-04T22:58:34.719Z,18.90
2022-08-04T23:01:02.727Z,19.00
2022-08-04T23:03:36.976Z,18.90
2022-08-04T23:06:10.906Z,18.90
2022-08-04T23:08:43.246Z,18.90
2022-08-04T23:11:15.836Z,18.90
2022-08-04T23:13:43.299Z,18.90
2022-08-04T23:16:11.309Z,18.90
2022-08-04T23:18:40.226Z,18.80
2022-08-04T23:21:11.053Z,18.70
2022-08-04T23:23:45.472Z,18.70
2022-08-04T23:26:27.635Z,18.60
2022-08-04T23:28:56.523Z,18.60
2022-08-04T23:31:24.721Z,18.50
2022-08-04T23:33:52.550Z,18.40
2022-08-04T23:36:29.757Z,18.40
2022-08-04T23:39:04.114Z,18.30
2022-08-04T23:41:53.888Z,18.20
2022-08-04T23:44:24.252Z,18.20
2022-08-04T23:46:58.843Z,18.10
2022-08-04T23:49:44.482Z,18.10
2022-08-04T23:52:28.235Z,18.10
2022-08-04T23:55:00.987Z,18.10
2022-08-04T23:57:31.055Z,18.10
